Agoura, CA

11:23 PM PST on February 28, 2015 (GMT -0800)
Conejo View | Change Station
CLOSE
Current Station
Personal Weather Station
Location: Agoura Hills, CA
Elevation: 932 ft
Nearby Weather Stations

Elev 932 ft 34.15 °N, 118.75 °W | Updated 16 seconds ago

Overcast
Overcast
45.1 °F
Feels Like 45 °F
N
0.0
Wind Variable Wind from West

Today
High -- | Low -- °F
--% Chance of Precip.
Yesterday
High -- | Low -- °F
Precip. -- in
6:25 AM 5:50 PM
Waxing Gibbous, 83% visible
Pressure 29.90 in
Visibility 10.0 miles
Clouds Mostly Cloudy 3300 ft
Mostly Cloudy 8500 ft
Windchill 45 °F
Dew Point 44 °F
Humidity 96%
Rainfall 0.00 in
Snow Depth Not available.
UV 0 out of 12
Pollen 8.50 out of 12
Air Quality Not available.
Flu Activity Not available.
METAR KVNY 010651Z AUTO 09004KT 10SM BKN033 BKN085 11/07 A2990 RMK AO2 SLP123 T01060072

More Conditions Fewer Conditions

Pressure 29.90 in
Visibility 10.0 miles
Clouds Mostly Cloudy 3300 ft
Mostly Cloudy 8500 ft
Windchill 45 °F
Dew Point 44 °F
Humidity 96%
Rainfall 0.00 in
Snow Depth Not available.
UV 0 out of 12
Pollen 8.50 out of 12
Air Quality Not available.
Flu Activity Not available.
METAR KVNY 010651Z AUTO 09004KT 10SM BKN033 BKN085 11/07 A2990 RMK AO2 SLP123 T01060072

More Conditions Fewer Conditions

10-Day Weather Forecast

Almanac

Astronomy

Feb. 28, 2015 Rise Set
Actual Time
Civil Twilight
Nautical Twilight
Astronomical Twilight
Moon
Length of Visible Light
Length of Day
Tomorrow will be .
, % of the Moon is Illuminated

Today's Extremes

State Highs State Lows

Community

WunderPhotos

Upload Photos

1,801,347 photos uploaded!

WunderBlogs® & News

Nearby

Air Quality

  Air Quality AQ Index Pollutant
Not available.

Snow Depth

Station Depth Elevation

Earthquake Activity

City Distance Mag. Time & Date
Minimum magnitude displayed is 2.5.

Coastal Water Temperatures

Place Temperature

Nearby Weather Stations